Time;durP1;ratioP1;P1;durP2;ratioP2;P2;SDS_P1;SDS_P2;PMS_P1;PMS_P2;Temp;Humidity;BMP_temperature;BMP_pressure;BME280_temperature;BME280_humidity;BME280_pressure;Samples;Min_cycle;Max_cycle;Signal;HPM_P1;HPM_P2
2023/03/25 00:01:24;;;;;;;;;;;;;;;;;;5110800;28;19903;-56
2023/03/25 00:03:52;;;;;;;;;;;;;;;;;;5109621;28;19911;-59
2023/03/25 00:06:18;;;;;;;;;;;;;;;;;;5105871;27;19907;-58
2023/03/25 00:08:43;;;;;;;;;;;;;;;;;;5122932;27;20375;-56
2023/03/25 00:11:10;;;;;;;;;;;;;;;;;;5113089;27;19966;-54
2023/03/25 00:13:36;;;;;;;;;;;;;;;;;;5112130;27;20402;-56
2023/03/25 00:16:02;;;;;;;;;;;;;;;;;;5122383;27;19908;-58
2023/03/25 00:18:28;;;;;;;;;;;;;;;;;;5115106;27;20539;-56
2023/03/25 00:20:55;;;;;;;;;;;;;;;;;;5102397;22;19938;-67
2023/03/25 00:23:21;;;;;;;;;;;;;;;;;;5055765;28;20326;-66
2023/03/25 00:25:47;;;;;;;;;;;;;;;;;;5052397;28;20296;-66
2023/03/25 00:28:12;;;;;;;;;;;;;;;;;;5036494;28;19910;-66
2023/03/25 00:30:38;;;;;;;;;;;;;;;;;;5058064;28;20043;-66
2023/03/25 00:33:04;;;;;;;;;;;;;;;;;;5059383;28;19935;-65
2023/03/25 00:35:31;;;;;;;;;;;;;;;;;;5052872;28;19959;-66
2023/03/25 00:38:01;;;;;;;;;;;;;;;;;;5052434;28;19987;-67
2023/03/25 00:40:27;;;;;;;;;;;;;;;;;;5052670;28;19991;-66
2023/03/25 00:42:53;;;;;;;;;;;;;;;;;;5052205;28;20050;-66
2023/03/25 00:45:19;;;;;;;;;;;;;;;;;;5055070;28;19947;-66
2023/03/25 00:47:45;;;;;;;;;;;;;;;;;;5057013;28;19915;-66
2023/03/25 00:50:11;;;;;;;;;;;;;;;;;;5052354;28;20312;-65
2023/03/25 00:52:36;;;;;;;;;;;;;;;;;;5051885;28;19909;-66
2023/03/25 00:55:03;;;;;;;;;;;;;;;;;;5049689;28;19909;-65
2023/03/25 00:57:29;;;;;;;;;;;;;;;;;;5052050;28;20357;-67
2023/03/25 00:59:55;;;;;;;;;;;;;;;;;;5053923;28;20054;-66
2023/03/25 01:02:21;;;;;;;;;;;;;;;;;;5051951;28;19926;-66
2023/03/25 01:04:48;;;;;;;;;;;;;;;;;;5050988;28;20376;-66
2023/03/25 01:07:14;;;;;;;;;;;;;;;;;;5050535;28;19911;-66
2023/03/25 01:09:40;;;;;;;;;;;;;;;;;;5051934;28;19905;-65
2023/03/25 01:12:06;;;;;;;;;;;;;;;;;;5051705;28;20000;-65
2023/03/25 01:14:32;;;;;;;;;;;;;;;;;;5051081;28;19905;-66
2023/03/25 01:16:58;;;;;;;;;;;;;;;;;;5050610;28;19909;-66
2023/03/25 01:19:24;;;;;;;;;;;;;;;;;;5050213;28;20345;-67
2023/03/25 01:21:50;;;;;;;;;;;;;;;;;;5050059;28;19931;-67
2023/03/25 01:24:16;;;;;;;;;;;;;;;;;;5051038;28;19995;-65
2023/03/25 01:26:45;;;;;;;;;;;;;;;;;;5050021;28;19904;-68
2023/03/25 01:29:10;;;;;;;;;;;;;;;;;;5051534;28;19928;-66
2023/03/25 01:31:36;;;;;;;;;;;;;;;;;;5051326;28;19971;-66
2023/03/25 01:34:02;;;;;;;;;;;;;;;;;;5050768;28;19905;-66
2023/03/25 01:36:28;;;;;;;;;;;;;;;;;;5051513;28;19908;-67
2023/03/25 01:38:54;;;;;;;;;;;;;;;;;;4699229;28;9999686;-67
2023/03/25 01:41:20;;;;;;;;;;;;;;;;;;5047418;28;19918;-66
2023/03/25 01:43:46;;;;;;;;;;;;;;;;;;5026407;28;20008;-66
2023/03/25 01:46:13;;;;;;;;;;;;;;;;;;5027319;28;19927;-64
2023/03/25 01:48:39;;;;;;;;;;;;;;;;;;5037987;28;20241;-66
2023/03/25 01:51:05;;;;;;;;;;;;;;;;;;5048028;28;19905;-65
2023/03/25 01:53:31;;;;;;;;;;;;;;;;;;5047630;28;19915;-66
2023/03/25 01:55:57;;;;;;;;;;;;;;;;;;5046201;28;19915;-66
2023/03/25 01:58:23;;;;;;;;;;;;;;;;;;5049509;28;19909;-65
2023/03/25 02:00:49;;;;;;;;;;;;;;;;;;5049453;28;20283;-65
2023/03/25 02:03:15;;;;;;;;;;;;;;;;;;5032815;28;20335;-65
2023/03/25 02:05:40;;;;;;;;;;;;;;;;;;5050884;28;19904;-65
2023/03/25 02:08:08;;;;;;;;;;;;;;;;;;5033042;28;19905;-65
2023/03/25 02:10:33;;;;;;;;;;;;;;;;;;5050989;28;19955;-64
2023/03/25 02:12:59;;;;;;;;;;;;;;;;;;5032922;28;20027;-66
2023/03/25 02:15:25;;;;;;;;;;;;;;;;;;5049993;28;20361;-66
2023/03/25 02:17:54;;;;;;;;;;;;;;;;;;5033320;28;19948;-66
2023/03/25 02:20:20;;;;;;;;;;;;;;;;;;5050502;28;19913;-65
2023/03/25 02:22:48;;;;;;;;;;;;;;;;;;5050614;28;20300;-66
2023/03/25 02:25:14;;;;;;;;;;;;;;;;;;5032344;28;20365;-65
2023/03/25 02:27:44;;;;;;;;;;;;;;;;;;5050931;28;20072;-64
2023/03/25 02:30:10;;;;;;;;;;;;;;;;;;5032874;28;20054;-65
2023/03/25 02:32:37;;;;;;;;;;;;;;;;;;5032586;28;20387;-66
2023/03/25 02:35:03;;;;;;;;;;;;;;;;;;5050391;28;19987;-63
2023/03/25 02:37:29;;;;;;;;;;;;;;;;;;5033057;28;19956;-67
2023/03/25 02:39:55;;;;;;;;;;;;;;;;;;5050670;28;19916;-66
2023/03/25 02:42:20;;;;;;;;;;;;;;;;;;5049735;28;20270;-68
2023/03/25 02:44:46;;;;;;;;;;;;;;;;;;5050090;28;20292;-70
2023/03/25 02:47:12;;;;;;;;;;;;;;;;;;5049466;28;19912;-64
2023/03/25 02:49:38;;;;;;;;;;;;;;;;;;5049380;28;19955;-68
2023/03/25 02:52:04;;;;;;;;;;;;;;;;;;5050283;28;19904;-68
2023/03/25 02:54:32;;;;;;;;;;;;;;;;;;5049773;28;19908;-66
2023/03/25 02:57:00;;;;;;;;;;;;;;;;;;4793319;28;9999726;-66
2023/03/25 02:59:31;;;;;;;;;;;;;;;;;;5047727;28;19959;-66
2023/03/25 03:01:57;;;;;;;;;;;;;;;;;;5048696;28;19909;-64
2023/03/25 03:04:24;;;;;;;;;;;;;;;;;;5047225;28;19920;-65
2023/03/25 03:06:49;;;;;;;;;;;;;;;;;;5049063;28;20373;-65
2023/03/25 03:09:16;;;;;;;;;;;;;;;;;;5050255;28;19905;-65
2023/03/25 03:11:42;;;;;;;;;;;;;;;;;;5050379;28;19944;-65
2023/03/25 03:14:08;;;;;;;;;;;;;;;;;;5049501;28;19935;-65
2023/03/25 03:16:34;;;;;;;;;;;;;;;;;;5043711;28;19909;-65
2023/03/25 03:19:01;;;;;;;;;;;;;;;;;;5050414;28;19908;-66
2023/03/25 03:21:28;;;;;;;;;;;;;;;;;;5050103;28;20296;-65
2023/03/25 03:23:54;;;;;;;;;;;;;;;;;;5049639;28;19911;-65
2023/03/25 03:26:20;;;;;;;;;;;;;;;;;;5050200;28;19908;-65
2023/03/25 03:28:46;;;;;;;;;;;;;;;;;;5052750;28;19905;-65
2023/03/25 03:31:12;;;;;;;;;;;;;;;;;;5052505;28;20266;-65
2023/03/25 03:33:39;;;;;;;;;;;;;;;;;;5051766;28;20003;-65
2023/03/25 03:36:05;;;;;;;;;;;;;;;;;;5054010;28;19911;-65
2023/03/25 03:38:31;;;;;;;;;;;;;;;;;;5053603;28;19955;-66
2023/03/25 03:40:57;;;;;;;;;;;;;;;;;;5053364;28;19955;-66
2023/03/25 03:43:23;;;;;;;;;;;;;;;;;;5051386;28;20427;-66
2023/03/25 03:45:50;;;;;;;;;;;;;;;;;;5053593;28;19907;-66
2023/03/25 03:48:15;;;;;;;;;;;;;;;;;;5052292;28;19943;-65
2023/03/25 03:50:41;;;;;;;;;;;;;;;;;;5052890;28;19909;-66
2023/03/25 03:53:07;;;;;;;;;;;;;;;;;;5052751;28;20289;-65
2023/03/25 03:55:36;;;;;;;;;;;;;;;;;;5051975;28;19944;-65
2023/03/25 03:58:02;;;;;;;;;;;;;;;;;;5051912;28;19992;-65
2023/03/25 04:00:28;;;;;;;;;;;;;;;;;;5051881;28;20052;-66
2023/03/25 04:02:54;;;;;;;;;;;;;;;;;;5053040;28;19908;-64
2023/03/25 04:05:20;;;;;;;;;;;;;;;;;;5052560;28;19909;-66
2023/03/25 04:07:53;;;;;;;;;;;;;;;;;;5053396;28;19951;-66
2023/03/25 04:10:19;;;;;;;;;;;;;;;;;;5052673;28;19912;-66
2023/03/25 04:12:45;;;;;;;;;;;;;;;;;;5052624;28;19905;-65
2023/03/25 04:15:11;;;;;;;;;;;;;;;;;;5051783;28;19905;-65
2023/03/25 04:17:37;;;;;;;;;;;;;;;;;;5053532;28;19955;-66
2023/03/25 04:20:07;;;;;;;;;;;;;;;;;;5052243;28;19916;-65
2023/03/25 04:22:36;;;;;;;;;;;;;;;;;;5053153;28;19912;-65
2023/03/25 04:25:02;;;;;;;;;;;;;;;;;;5052233;28;19904;-66
2023/03/25 04:27:31;;;;;;;;;;;;;;;;;;5051881;28;19905;-66
2023/03/25 04:29:57;;;;;;;;;;;;;;;;;;5052932;28;19912;-67
2023/03/25 04:32:26;;;;;;;;;;;;;;;;;;5051160;28;19905;-66
2023/03/25 04:34:56;;;;;;;;;;;;;;;;;;5050788;28;20445;-66
2023/03/25 04:37:22;;;;;;;;;;;;;;;;;;5052935;28;19959;-66
2023/03/25 04:39:48;;;;;;;;;;;;;;;;;;5051048;28;19962;-66
2023/03/25 04:42:16;;;;;;;;;;;;;;;;;;5052545;28;19952;-66
2023/03/25 04:44:44;;;;;;;;;;;;;;;;;;5051620;28;19948;-66
2023/03/25 04:47:10;;;;;;;;;;;;;;;;;;5052431;28;19965;-65
2023/03/25 04:49:36;;;;;;;;;;;;;;;;;;5052384;28;19905;-66
2023/03/25 04:52:03;;;;;;;;;;;;;;;;;;5052398;28;20345;-66
2023/03/25 04:54:29;;;;;;;;;;;;;;;;;;5050238;28;19905;-66
2023/03/25 04:56:55;;;;;;;;;;;;;;;;;;5050636;28;19904;-65
2023/03/25 04:59:23;;;;;;;;;;;;;;;;;;5052008;28;19905;-65
2023/03/25 05:01:49;;;;;;;;;;;;;;;;;;5052201;28;19904;-66
2023/03/25 05:04:16;;;;;;;;;;;;;;;;;;5050114;28;19905;-65
2023/03/25 05:06:42;;;;;;;;;;;;;;;;;;5051819;28;19978;-63
2023/03/25 05:09:08;;;;;;;;;;;;;;;;;;5050694;28;19905;-65
2023/03/25 05:11:34;;;;;;;;;;;;;;;;;;5052006;28;19911;-65
2023/03/25 05:14:00;;;;;;;;;;;;;;;;;;5051097;28;19984;-65
2023/03/25 05:16:26;;;;;;;;;;;;;;;;;;5051752;28;20329;-65
2023/03/25 05:18:52;;;;;;;;;;;;;;;;;;5050476;28;19915;-63
2023/03/25 05:21:18;;;;;;;;;;;;;;;;;;5049991;28;20289;-65
2023/03/25 05:23:44;;;;;;;;;;;;;;;;;;5051110;28;19950;-65
2023/03/25 05:26:13;;;;;;;;;;;;;;;;;;5050496;28;19911;-66
2023/03/25 05:28:39;;;;;;;;;;;;;;;;;;5051614;28;20380;-65
2023/03/25 05:31:07;;;;;;;;;;;;;;;;;;5051448;28;19905;-65
2023/03/25 05:33:33;;;;;;;;;;;;;;;;;;5051017;28;19960;-64
2023/03/25 05:36:00;;;;;;;;;;;;;;;;;;5050176;28;19905;-64
2023/03/25 05:38:26;;;;;;;;;;;;;;;;;;5050477;28;19999;-64
2023/03/25 05:40:52;;;;;;;;;;;;;;;;;;5051299;28;20007;-64
2023/03/25 05:43:21;;;;;;;;;;;;;;;;;;5050586;28;19991;-64
2023/03/25 05:45:47;;;;;;;;;;;;;;;;;;5051256;28;19904;-65
2023/03/25 05:48:13;;;;;;;;;;;;;;;;;;5051410;28;20391;-66
2023/03/25 05:50:41;;;;;;;;;;;;;;;;;;5050389;28;19916;-66
2023/03/25 05:53:08;;;;;;;;;;;;;;;;;;5050574;28;19904;-65
2023/03/25 05:55:34;;;;;;;;;;;;;;;;;;5048427;28;20337;-65
2023/03/25 05:58:00;;;;;;;;;;;;;;;;;;5051380;28;20349;-66
2023/03/25 06:00:26;;;;;;;;;;;;;;;;;;5051039;28;19962;-66
2023/03/25 06:02:52;;;;;;;;;;;;;;;;;;5049581;28;19959;-66
2023/03/25 06:05:22;;;;;;;;;;;;;;;;;;5048714;28;20380;-66
2023/03/25 06:07:48;;;;;;;;;;;;;;;;;;5051086;28;19909;-65
2023/03/25 06:10:17;;;;;;;;;;;;;;;;;;5050855;28;19939;-66
2023/03/25 06:12:44;;;;;;;;;;;;;;;;;;5050802;28;20015;-67
2023/03/25 06:15:10;;;;;;;;;;;;;;;;;;5050236;28;20284;-65
2023/03/25 06:17:38;;;;;;;;;;;;;;;;;;5049704;28;19905;-65
2023/03/25 06:20:09;;;;;;;;;;;;;;;;;;5050299;28;20258;-65
2023/03/25 06:22:36;;;;;;;;;;;;;;;;;;5068952;22;20003;-55
2023/03/25 06:25:02;;;;;;;;;;;;;;;;;;5071117;28;19904;-58
2023/03/25 06:27:28;;;;;;;;;;;;;;;;;;5068333;28;19904;-57
2023/03/25 06:29:54;;;;;;;;;;;;;;;;;;5070943;28;19904;-58
2023/03/25 06:32:20;;;;;;;;;;;;;;;;;;5071719;28;19984;-58
2023/03/25 06:34:46;;;;;;;;;;;;;;;;;;5070915;28;20031;-58
2023/03/25 06:37:12;;;;;;;;;;;;;;;;;;5053553;28;19924;-57
2023/03/25 06:39:38;;;;;;;;;;;;;;;;;;5060145;28;19912;-56
2023/03/25 06:42:04;;;;;;;;;;;;;;;;;;5047418;28;19905;-57
2023/03/25 06:44:30;;;;;;;;;;;;;;;;;;5065388;28;20359;-57
2023/03/25 06:46:56;;;;;;;;;;;;;;;;;;5051847;28;19905;-58
2023/03/25 06:49:22;;;;;;;;;;;;;;;;;;5051571;28;19905;-60
2023/03/25 06:51:47;;;;;;;;;;;;;;;;;;5051560;28;19912;-51
2023/03/25 06:54:14;;;;;;;;;;;;;;;;;;5050550;28;19954;-56
2023/03/25 06:56:40;;;;;;;;;;;;;;;;;;5051580;28;19991;-53
2023/03/25 06:59:06;;;;;;;;;;;;;;;;;;5051495;28;20400;-56
2023/03/25 07:01:31;;;;;;;;;;;;;;;;;;5052174;28;19908;-53
2023/03/25 07:03:57;;;;;;;;;;;;;;;;;;5054582;28;20302;-59
2023/03/25 07:06:23;;;;;;;;;;;;;;;;;;5054059;28;19909;-56
2023/03/25 07:08:49;;;;;;;;;;;;;;;;;;5055333;28;20003;-58
2023/03/25 07:11:15;;;;;;;;;;;;;;;;;;5055091;28;19904;-58
2023/03/25 07:13:41;;;;;;;;;;;;;;;;;;5053305;28;20003;-57
2023/03/25 07:16:07;;;;;;;;;;;;;;;;;;5055202;28;19905;-58
2023/03/25 07:18:33;;;;;;;;;;;;;;;;;;5055110;28;19905;-54
2023/03/25 07:20:59;;;;;;;;;;;;;;;;;;5041888;28;19913;-55
2023/03/25 07:23:25;;;;;;;;;;;;;;;;;;5054215;28;19916;-57
2023/03/25 07:25:50;;;;;;;;;;;;;;;;;;5037253;28;19911;-59
2023/03/25 07:28:16;;;;;;;;;;;;;;;;;;5054926;28;20376;-60
2023/03/25 07:30:42;;;;;;;;;;;;;;;;;;5054832;28;19904;-60
2023/03/25 07:33:08;;;;;;;;;;;;;;;;;;5053773;28;20406;-59
2023/03/25 07:35:34;;;;;;;;;;;;;;;;;;5037418;28;19944;-59
2023/03/25 07:38:01;;;;;;;;;;;;;;;;;;5036564;28;20401;-59
2023/03/25 07:40:27;;;;;;;;;;;;;;;;;;5054475;28;19920;-58
2023/03/25 07:42:53;;;;;;;;;;;;;;;;;;5054557;28;19905;-58
2023/03/25 07:45:19;;;;;;;;;;;;;;;;;;5036141;28;20352;-56
2023/03/25 07:47:48;;;;;;;;;;;;;;;;;;5054591;28;19905;-57
2023/03/25 07:50:14;;;;;;;;;;;;;;;;;;5054699;28;19912;-59
2023/03/25 07:52:40;;;;;;;;;;;;;;;;;;5054395;28;19940;-59
2023/03/25 07:55:06;;;;;;;;;;;;;;;;;;5038543;28;20289;-59
2023/03/25 07:57:32;;;;;;;;;;;;;;;;;;5034619;28;19905;-59
2023/03/25 07:59:58;;;;;;;;;;;;;;;;;;5034359;28;20443;-57
2023/03/25 08:02:24;;;;;;;;;;;;;;;;;;5034455;28;19916;-59
2023/03/25 08:04:53;;;;;;;;;;;;;;;;;;5033532;28;19955;-59
2023/03/25 08:07:19;;;;;;;;;;;;;;;;;;5034138;28;19912;-59
2023/03/25 08:09:45;;;;;;;;;;;;;;;;;;5034289;28;20281;-60
2023/03/25 08:12:11;;;;;;;;;;;;;;;;;;5034257;28;20369;-59
2023/03/25 08:14:36;;;;;;;;;;;;;;;;;;5033164;28;19912;-60
2023/03/25 08:17:02;;;;;;;;;;;;;;;;;;5034623;28;19912;-60
2023/03/25 08:19:28;;;;;;;;;;;;;;;;;;5034300;28;19905;-60
2023/03/25 08:21:54;;;;;;;;;;;;;;;;;;5028109;28;20342;-60
2023/03/25 08:24:20;;;;;;;;;;;;;;;;;;5035729;28;19908;-59
2023/03/25 08:26:46;;;;;;;;;;;;;;;;;;5053883;28;19951;-61
2023/03/25 08:29:16;;;;;;;;;;;;;;;;;;5035722;28;19966;-60
2023/03/25 08:31:45;;;;;;;;;;;;;;;;;;5053625;28;20364;-59
2023/03/25 08:34:11;;;;;;;;;;;;;;;;;;5052859;28;19949;-61
2023/03/25 08:36:38;;;;;;;;;;;;;;;;;;5035571;28;19908;-61
2023/03/25 08:39:08;;;;;;;;;;;;;;;;;;5053549;28;20377;-60
2023/03/25 08:41:34;;;;;;;;;;;;;;;;;;5053374;28;19964;-61
2023/03/25 08:44:00;;;;;;;;;;;;;;;;;;5034677;28;20058;-62
2023/03/25 08:46:26;;;;;;;;;;;;;;;;;;5053237;28;19911;-63
2023/03/25 08:48:52;;;;;;;;;;;;;;;;;;5035584;28;19983;-62
2023/03/25 08:51:18;;;;;;;;;;;;;;;;;;5035215;28;20296;-62
2023/03/25 08:53:44;;;;;;;;;;;;;;;;;;5052428;28;19999;-62
2023/03/25 08:56:10;;;;;;;;;;;;;;;;;;5053286;28;19905;-62
2023/03/25 08:58:36;;;;;;;;;;;;;;;;;;5053155;28;19940;-63
2023/03/25 09:01:02;;;;;;;;;;;;;;;;;;5053101;28;19913;-61
2023/03/25 09:03:28;;;;;;;;;;;;;;;;;;5052303;28;19938;-61
2023/03/25 09:05:54;;;;;;;;;;;;;;;;;;5035420;28;19958;-61
2023/03/25 09:08:19;;;;;;;;;;;;;;;;;;5052933;28;19939;-60
2023/03/25 09:10:45;;;;;;;;;;;;;;;;;;5034991;28;20421;-63
2023/03/25 09:13:11;;;;;;;;;;;;;;;;;;5052160;28;19915;-60
2023/03/25 09:15:37;;;;;;;;;;;;;;;;;;5052711;28;19911;-62
2023/03/25 09:18:04;;;;;;;;;;;;;;;;;;5052697;28;20346;-61
2023/03/25 09:20:30;;;;;;;;;;;;;;;;;;5034520;28;19909;-63
2023/03/25 09:22:56;;;;;;;;;;;;;;;;;;5032536;28;20362;-60
2023/03/25 09:25:22;;;;;;;;;;;;;;;;;;5040157;28;19908;-64
2023/03/25 09:27:48;;;;;;;;;;;;;;;;;;5062131;28;19904;-62
2023/03/25 09:30:14;;;;;;;;;;;;;;;;;;5071244;28;19904;-61
2023/03/25 09:32:40;;;;;;;;;;;;;;;;;;5072078;28;19912;-60
2023/03/25 09:35:06;;;;;;;;;;;;;;;;;;5071750;28;20006;-60
2023/03/25 09:37:32;;;;;;;;;;;;;;;;;;5054123;28;19905;-60
2023/03/25 09:39:58;;;;;;;;;;;;;;;;;;5071937;28;19908;-61
2023/03/25 09:42:24;;;;;;;;;;;;;;;;;;5072005;28;19916;-60
2023/03/25 09:44:50;;;;;;;;;;;;;;;;;;5071266;28;20003;-61
2023/03/25 09:47:16;;;;;;;;;;;;;;;;;;5054260;28;19905;-59
2023/03/25 09:49:41;;;;;;;;;;;;;;;;;;5072125;28;19962;-59
2023/03/25 09:52:07;;;;;;;;;;;;;;;;;;5071658;28;20482;-60
2023/03/25 09:54:33;;;;;;;;;;;;;;;;;;5071272;28;19908;-61
2023/03/25 09:56:59;;;;;;;;;;;;;;;;;;5072015;28;19907;-62
2023/03/25 09:59:25;;;;;;;;;;;;;;;;;;5071815;28;19908;-61
2023/03/25 10:01:51;;;;;;;;;;;;;;;;;;5071749;28;19908;-62
2023/03/25 10:04:17;;;;;;;;;;;;;;;;;;5070978;28;19905;-61
2023/03/25 10:06:43;;;;;;;;;;;;;;;;;;5071533;28;19911;-61
2023/03/25 10:09:09;;;;;;;;;;;;;;;;;;5071594;28;20003;-60
2023/03/25 10:11:35;;;;;;;;;;;;;;;;;;5071715;28;19905;-60
2023/03/25 10:14:00;;;;;;;;;;;;;;;;;;5070898;28;19908;-60
2023/03/25 10:16:26;;;;;;;;;;;;;;;;;;5071781;28;19908;-60
2023/03/25 10:18:52;;;;;;;;;;;;;;;;;;5071814;28;19932;-62
2023/03/25 10:21:18;;;;;;;;;;;;;;;;;;5064454;28;20331;-60
2023/03/25 10:23:44;;;;;;;;;;;;;;;;;;5050907;28;20103;-61
2023/03/25 10:26:10;;;;;;;;;;;;;;;;;;5051541;28;19931;-60
2023/03/25 10:28:36;;;;;;;;;;;;;;;;;;5051544;28;19904;-59
2023/03/25 10:31:02;;;;;;;;;;;;;;;;;;5051361;28;20533;-61
2023/03/25 10:33:28;;;;;;;;;;;;;;;;;;5050604;28;19916;-62
2023/03/25 10:35:54;;;;;;;;;;;;;;;;;;5051081;28;19901;-61
2023/03/25 10:38:19;;;;;;;;;;;;;;;;;;5052909;28;19988;-62
2023/03/25 10:40:48;;;;;;;;;;;;;;;;;;5064737;28;19912;-57
2023/03/25 10:43:15;;;;;;;;;;;;;;;;;;5065958;28;20395;-62
2023/03/25 10:45:41;;;;;;;;;;;;;;;;;;5075469;28;19991;-61
2023/03/25 10:48:07;;;;;;;;;;;;;;;;;;5075595;28;19939;-60
2023/03/25 10:50:33;;;;;;;;;;;;;;;;;;5067618;28;19909;-60
2023/03/25 10:52:59;;;;;;;;;;;;;;;;;;5058903;28;19904;-60
2023/03/25 10:55:25;;;;;;;;;;;;;;;;;;5075013;28;19911;-63
2023/03/25 10:57:51;;;;;;;;;;;;;;;;;;5057239;28;19916;-61
2023/03/25 11:00:17;;;;;;;;;;;;;;;;;;5075295;28;19909;-60
2023/03/25 11:02:43;;;;;;;;;;;;;;;;;;5075224;28;19922;-62
2023/03/25 11:05:09;;;;;;;;;;;;;;;;;;5074141;28;19908;-60
2023/03/25 11:07:35;;;;;;;;;;;;;;;;;;5075068;28;20380;-62
2023/03/25 11:10:01;;;;;;;;;;;;;;;;;;5075111;28;19912;-62
2023/03/25 11:12:27;;;;;;;;;;;;;;;;;;5074764;28;20257;-62
2023/03/25 11:14:53;;;;;;;;;;;;;;;;;;5074276;28;19912;-62
2023/03/25 11:17:24;;;;;;;;;;;;;;;;;;5045882;28;20431;-60
2023/03/25 11:19:50;;;;;;;;;;;;;;;;;;5064564;28;20288;-62
2023/03/25 11:22:16;;;;;;;;;;;;;;;;;;5058041;28;19913;-60
2023/03/25 11:24:42;;;;;;;;;;;;;;;;;;5054186;28;19956;-60
2023/03/25 11:27:07;;;;;;;;;;;;;;;;;;4694912;28;10000407;-62
2023/03/25 11:29:34;;;;;;;;;;;;;;;;;;5042170;28;19909;-60
2023/03/25 11:31:59;;;;;;;;;;;;;;;;;;5051015;28;20485;-58
2023/03/25 11:34:26;;;;;;;;;;;;;;;;;;5050611;28;19913;-62
2023/03/25 11:36:53;;;;;;;;;;;;;;;;;;5033009;28;19963;-62
2023/03/25 11:39:19;;;;;;;;;;;;;;;;;;5030793;28;19905;-61
2023/03/25 11:41:45;;;;;;;;;;;;;;;;;;5042768;28;19936;-62
2023/03/25 11:44:11;;;;;;;;;;;;;;;;;;5049700;28;19908;-62
2023/03/25 11:46:37;;;;;;;;;;;;;;;;;;5054773;28;19904;-63
2023/03/25 11:49:03;;;;;;;;;;;;;;;;;;5043075;28;19908;-64
2023/03/25 11:51:29;;;;;;;;;;;;;;;;;;5058659;28;20300;-60
2023/03/25 11:53:55;;;;;;;;;;;;;;;;;;5058867;28;19994;-63
2023/03/25 11:56:21;;;;;;;;;;;;;;;;;;5065445;28;19912;-63
2023/03/25 11:58:47;;;;;;;;;;;;;;;;;;5062921;28;19904;-59
2023/03/25 12:01:12;;;;;;;;;;;;;;;;;;5057813;28;19908;-53
2023/03/25 12:03:38;;;;;;;;;;;;;;;;;;5052562;28;19908;-57
2023/03/25 12:06:04;;;;;;;;;;;;;;;;;;5053922;28;20369;-56
2023/03/25 12:08:30;;;;;;;;;;;;;;;;;;5035820;28;19908;-56
2023/03/25 12:10:56;;;;;;;;;;;;;;;;;;5061891;28;19931;-61
2023/03/25 12:13:22;;;;;;;;;;;;;;;;;;5052923;28;20416;-57
2023/03/25 12:15:48;;;;;;;;;;;;;;;;;;5053788;28;19911;-59
2023/03/25 12:18:14;;;;;;;;;;;;;;;;;;5060460;28;19927;-59
2023/03/25 12:20:40;;;;;;;;;;;;;;;;;;5060139;28;19908;-59
2023/03/25 12:23:06;;;;;;;;;;;;;;;;;;5086770;22;20407;-61
2023/03/25 12:25:32;;;;;;;;;;;;;;;;;;5054223;28;19909;-63
2023/03/25 12:27:58;;;;;;;;;;;;;;;;;;5053576;28;19911;-61
2023/03/25 12:30:24;;;;;;;;;;;;;;;;;;5054734;28;19999;-57
2023/03/25 12:32:50;;;;;;;;;;;;;;;;;;5053105;28;20361;-60
2023/03/25 12:35:16;;;;;;;;;;;;;;;;;;5046841;28;19909;-62
2023/03/25 12:37:42;;;;;;;;;;;;;;;;;;5016197;28;20355;-62
2023/03/25 12:40:08;;;;;;;;;;;;;;;;;;5042596;28;19908;-60
2023/03/25 12:42:34;;;;;;;;;;;;;;;;;;5025848;28;19912;-59
2023/03/25 12:45:01;;;;;;;;;;;;;;;;;;5041491;28;20007;-61
2023/03/25 12:47:26;;;;;;;;;;;;;;;;;;5016799;28;19943;-60
2023/03/25 12:49:52;;;;;;;;;;;;;;;;;;5016499;28;19905;-60
2023/03/25 12:52:18;;;;;;;;;;;;;;;;;;5034139;28;19948;-63
2023/03/25 12:54:44;;;;;;;;;;;;;;;;;;5015623;28;19905;-62
2023/03/25 12:57:12;;;;;;;;;;;;;;;;;;5042086;28;19927;-60
2023/03/25 12:59:38;;;;;;;;;;;;;;;;;;5050553;28;19912;-64
2023/03/25 13:02:03;;;;;;;;;;;;;;;;;;5053822;28;19912;-63
2023/03/25 13:04:30;;;;;;;;;;;;;;;;;;5053134;28;19940;-63
2023/03/25 13:06:57;;;;;;;;;;;;;;;;;;5053879;28;19912;-63
2023/03/25 13:09:23;;;;;;;;;;;;;;;;;;5054116;28;20023;-62
2023/03/25 13:11:49;;;;;;;;;;;;;;;;;;5053742;28;19958;-63
2023/03/25 13:14:15;;;;;;;;;;;;;;;;;;5051354;28;20403;-61
2023/03/25 13:16:41;;;;;;;;;;;;;;;;;;5053632;28;20373;-64
2023/03/25 13:19:07;;;;;;;;;;;;;;;;;;5053456;28;19959;-62
2023/03/25 13:21:33;;;;;;;;;;;;;;;;;;5043617;28;19913;-61
2023/03/25 13:23:59;;;;;;;;;;;;;;;;;;5024505;28;19913;-64
2023/03/25 13:26:25;;;;;;;;;;;;;;;;;;5044869;28;19987;-57
2023/03/25 13:28:53;;;;;;;;;;;;;;;;;;5052297;28;19974;-61
2023/03/25 13:31:18;;;;;;;;;;;;;;;;;;5053177;28;19904;-59
2023/03/25 13:33:45;;;;;;;;;;;;;;;;;;5052038;28;19960;-58
2023/03/25 13:36:11;;;;;;;;;;;;;;;;;;5033827;28;20289;-57
2023/03/25 13:38:37;;;;;;;;;;;;;;;;;;5013818;28;19905;-61
2023/03/25 13:41:03;;;;;;;;;;;;;;;;;;5014952;28;19909;-62
2023/03/25 13:43:29;;;;;;;;;;;;;;;;;;5029913;28;20468;-58
2023/03/25 13:45:55;;;;;;;;;;;;;;;;;;5028603;28;20290;-59
2023/03/25 13:48:22;;;;;;;;;;;;;;;;;;5028726;28;19905;-61
2023/03/25 13:50:48;;;;;;;;;;;;;;;;;;5013242;28;19905;-59
2023/03/25 13:53:14;;;;;;;;;;;;;;;;;;5012255;28;20007;-57
2023/03/25 13:55:40;;;;;;;;;;;;;;;;;;5013135;28;20013;-59
2023/03/25 13:58:07;;;;;;;;;;;;;;;;;;5012948;28;20012;-62
2023/03/25 14:00:33;;;;;;;;;;;;;;;;;;5012872;28;20369;-61
2023/03/25 14:02:59;;;;;;;;;;;;;;;;;;5027700;28;19943;-59
2023/03/25 14:05:25;;;;;;;;;;;;;;;;;;5027435;28;19917;-61
2023/03/25 14:07:51;;;;;;;;;;;;;;;;;;5027922;28;19906;-62
2023/03/25 14:10:17;;;;;;;;;;;;;;;;;;5012827;28;19928;-58
2023/03/25 14:12:43;;;;;;;;;;;;;;;;;;5012290;28;19913;-58
2023/03/25 14:15:09;;;;;;;;;;;;;;;;;;5027279;28;19909;-60
2023/03/25 14:17:35;;;;;;;;;;;;;;;;;;5012349;28;19928;-57
2023/03/25 14:20:01;;;;;;;;;;;;;;;;;;5012629;28;19913;-58
2023/03/25 14:22:27;;;;;;;;;;;;;;;;;;5027176;28;19913;-61
2023/03/25 14:24:52;;;;;;;;;;;;;;;;;;5010535;28;19916;-60
2023/03/25 14:27:18;;;;;;;;;;;;;;;;;;4995075;28;19912;-59
2023/03/25 14:29:44;;;;;;;;;;;;;;;;;;5012011;28;19913;-59
2023/03/25 14:32:10;;;;;;;;;;;;;;;;;;5012315;28;19909;-57
2023/03/25 14:34:37;;;;;;;;;;;;;;;;;;5013053;28;19909;-59
2023/03/25 14:37:04;;;;;;;;;;;;;;;;;;5014106;28;19913;-60
2023/03/25 14:39:30;;;;;;;;;;;;;;;;;;5031980;28;19905;-60
2023/03/25 14:41:56;;;;;;;;;;;;;;;;;;5031869;28;20050;-58
2023/03/25 14:44:27;;;;;;;;;;;;;;;;;;5031086;28;20395;-61
2023/03/25 14:47:00;;;;;;;;;;;;;;;;;;5031828;28;19909;-57
2023/03/25 14:49:29;;;;;;;;;;;;;;;;;;5013961;28;19913;-59
2023/03/25 14:51:54;;;;;;;;;;;;;;;;;;5032236;28;19905;-61
2023/03/25 14:54:20;;;;;;;;;;;;;;;;;;5013588;28;20288;-58
2023/03/25 14:56:46;;;;;;;;;;;;;;;;;;5031876;28;19911;-59
2023/03/25 14:59:12;;;;;;;;;;;;;;;;;;4318310;28;10000734;-58
2023/03/25 15:01:39;;;;;;;;;;;;;;;;;;5016085;28;19909;-63
2023/03/25 15:04:05;;;;;;;;;;;;;;;;;;5027907;28;19996;-62
2023/03/25 15:06:31;;;;;;;;;;;;;;;;;;5015531;28;19991;-62
2023/03/25 15:08:58;;;;;;;;;;;;;;;;;;4991904;28;19913;-61
2023/03/25 15:11:24;;;;;;;;;;;;;;;;;;4997162;28;19999;-62
2023/03/25 15:13:51;;;;;;;;;;;;;;;;;;5007667;28;20024;-64
2023/03/25 15:16:17;;;;;;;;;;;;;;;;;;5008806;28;20365;-63
2023/03/25 15:18:43;;;;;;;;;;;;;;;;;;5010055;28;19968;-66
2023/03/25 15:21:09;;;;;;;;;;;;;;;;;;5014944;28;19909;-62
2023/03/25 15:23:35;;;;;;;;;;;;;;;;;;5030028;28;19913;-60
2023/03/25 15:26:01;;;;;;;;;;;;;;;;;;5033236;28;19963;-64
2023/03/25 15:28:27;;;;;;;;;;;;;;;;;;5031483;28;20348;-63
2023/03/25 15:30:53;;;;;;;;;;;;;;;;;;5032853;28;20681;-64
2023/03/25 15:33:19;;;;;;;;;;;;;;;;;;5027084;28;19909;-64
2023/03/25 15:35:46;;;;;;;;;;;;;;;;;;5047908;28;19970;-63
2023/03/25 15:38:12;;;;;;;;;;;;;;;;;;5046673;28;19905;-64
2023/03/25 15:40:38;;;;;;;;;;;;;;;;;;5051155;28;19909;-63
2023/03/25 15:43:04;;;;;;;;;;;;;;;;;;5031417;28;19909;-65
2023/03/25 15:45:30;;;;;;;;;;;;;;;;;;5033305;28;19987;-64
2023/03/25 15:47:56;;;;;;;;;;;;;;;;;;5014518;28;20499;-63
2023/03/25 15:50:22;;;;;;;;;;;;;;;;;;5031881;28;20011;-64
2023/03/25 15:52:47;;;;;;;;;;;;;;;;;;5032139;28;19905;-63
2023/03/25 15:55:13;;;;;;;;;;;;;;;;;;5013665;28;19916;-64
2023/03/25 15:57:39;;;;;;;;;;;;;;;;;;5032362;28;20668;-63
2023/03/25 16:00:12;;;;;;;;;;;;;;;;;;5006472;28;20003;-62
2023/03/25 16:02:38;;;;;;;;;;;;;;;;;;5031736;28;19912;-63
2023/03/25 16:05:04;;;;;;;;;;;;;;;;;;5030543;28;20207;-62
2023/03/25 16:07:30;;;;;;;;;;;;;;;;;;5031545;28;19905;-57
2023/03/25 16:09:58;;;;;;;;;;;;;;;;;;5031165;28;19905;-63
2023/03/25 16:12:24;;;;;;;;;;;;;;;;;;5013124;28;20358;-60
2023/03/25 16:14:50;;;;;;;;;;;;;;;;;;5013200;28;19909;-58
2023/03/25 16:17:16;;;;;;;;;;;;;;;;;;5031477;28;20262;-58
2023/03/25 16:19:42;;;;;;;;;;;;;;;;;;5013552;28;19906;-58
2023/03/25 16:22:08;;;;;;;;;;;;;;;;;;5014284;28;19917;-57
2023/03/25 16:24:34;;;;;;;;;;;;;;;;;;5030840;28;19979;-58
2023/03/25 16:27:02;;;;;;;;;;;;;;;;;;5031677;28;19908;-61
2023/03/25 16:29:28;;;;;;;;;;;;;;;;;;5013850;28;19909;-57
2023/03/25 16:31:55;;;;;;;;;;;;;;;;;;5031525;28;19916;-61
2023/03/25 16:34:21;;;;;;;;;;;;;;;;;;5012772;28;20297;-61
2023/03/25 16:36:47;;;;;;;;;;;;;;;;;;5013935;28;19909;-58
2023/03/25 16:39:13;;;;;;;;;;;;;;;;;;5032526;28;19971;-62